Time;durP1;ratioP1;P1;durP2;ratioP2;P2;SDS_P1;SDS_P2;PMS_P1;PMS_P2;Temp;Humidity;BMP_temperature;BMP_pressure;BME280_temperature;BME280_humidity;BME280_pressure;Samples;Min_cycle;Max_cycle;Signal;HPM_P1;HPM_P2
2023/06/27 00:00:56;;;;;;;4.10;1.48;;;;;;;20.46;54.46;98947.38;4169630;28;20216;-52
2023/06/27 00:02:58;;;;;;;1.67;1.10;;;;;;;20.30;54.82;98943.22;4138483;28;20239;-51
2023/06/27 00:05:00;;;;;;;1.60;1.10;;;;;;;20.26;54.73;98948.50;4151445;28;20289;-52
2023/06/27 00:07:02;;;;;;;3.97;1.42;;;;;;;20.27;55.21;98949.34;4141696;28;20209;-51
2023/06/27 00:09:06;;;;;;;1.48;1.10;;;;;;;20.19;55.50;98947.25;4167162;28;20258;-51
2023/06/27 00:11:07;;;;;;;7.72;1.15;;;;;;;20.16;55.79;98953.41;4140062;28;20204;-51
2023/06/27 00:13:15;;;;;;;2.08;1.13;;;;;;;20.14;55.85;98950.97;4167345;28;20208;-52
2023/06/27 00:15:18;;;;;;;2.53;1.17;;;;;;;20.08;56.32;98952.16;4140614;28;20300;-51
2023/06/27 00:17:23;;;;;;;5.22;1.00;;;;;;;20.01;56.36;98945.28;4139735;28;20213;-52
2023/06/27 00:19:25;;;;;;;1.48;1.00;;;;;;;19.98;57.13;98946.69;4144052;28;20240;-51
2023/06/27 00:21:28;;;;;;;1.42;1.00;;;;;;;19.97;57.30;98947.03;4143324;28;20213;-52
2023/06/27 00:23:33;;;;;;;1.60;1.05;;;;;;;19.94;57.60;98961.50;4166768;28;20216;-51
2023/06/27 00:25:35;;;;;;;3.85;1.20;;;;;;;19.94;57.47;98962.34;4139977;28;20590;-51
2023/06/27 00:27:37;;;;;;;1.88;1.10;;;;;;;19.97;57.74;98966.47;4137702;28;20214;-51
2023/06/27 00:29:39;;;;;;;3.67;1.02;;;;;;;19.95;57.81;98958.44;4143692;28;20216;-51
2023/06/27 00:31:41;;;;;;;2.40;1.08;;;;;;;19.98;58.12;98968.13;4136454;28;20656;-50
2023/06/27 00:33:43;;;;;;;1.38;1.20;;;;;;;20.00;58.16;98960.31;4151107;28;20740;-51
2023/06/27 00:35:44;;;;;;;1.25;1.00;;;;;;;19.98;57.95;98968.13;4165536;28;20240;-51
2023/06/27 00:37:46;;;;;;;1.60;1.10;;;;;;;19.98;57.80;98963.38;4141552;28;20723;-51
2023/06/27 00:39:49;;;;;;;3.58;1.50;;;;;;;19.97;57.73;98966.47;4123051;28;20213;-51
2023/06/27 00:41:52;;;;;;;1.52;1.20;;;;;;;19.87;57.57;98967.44;4137101;28;20212;-51
2023/06/27 00:43:56;;;;;;;3.75;1.10;;;;;;;19.80;57.72;98966.97;4136862;28;20210;-51
2023/06/27 00:46:06;;;;;;;1.20;1.10;;;;;;;19.74;57.70;98970.94;4143485;28;20236;-51
2023/06/27 00:48:12;;;;;;;1.83;1.10;;;;;;;19.71;57.92;98970.72;4149546;28;20212;-52
2023/06/27 00:50:14;;;;;;;2.72;1.38;;;;;;;19.69;58.42;98970.16;4168066;28;20211;-51
2023/06/27 00:52:15;;;;;;;1.88;1.10;;;;;;;19.65;58.36;98980.25;4140904;28;20209;-52
2023/06/27 00:54:18;;;;;;;1.20;1.10;;;;;;;19.66;58.63;98981.88;4136022;28;22371;-51
2023/06/27 00:56:19;;;;;;;1.77;1.08;;;;;;;19.63;58.91;98983.31;4135943;28;20279;-51
2023/06/27 00:58:21;;;;;;;2.33;1.00;;;;;;;19.55;59.26;98972.03;4139815;28;20209;-52
2023/06/27 01:00:23;;;;;;;1.60;0.90;;;;;;;19.50;59.54;98969.31;4169647;28;20218;-51
2023/06/27 01:02:25;;;;;;;2.58;0.98;;;;;;;19.48;59.70;98968.78;4134332;28;20209;-51
2023/06/27 01:04:27;;;;;;;1.63;1.00;;;;;;;19.47;60.03;98967.97;4135718;28;20205;-51
2023/06/27 01:06:56;;;;;;;2.03;1.30;;;;;;;19.43;59.90;98966.06;4134311;28;20229;-51
2023/06/27 01:09:04;;;;;;;1.88;1.20;;;;;;;19.46;60.32;98971.84;4136681;28;20213;-51
2023/06/27 01:11:14;;;;;;;1.42;1.17;;;;;;;19.43;60.29;98971.63;4164852;28;20262;-51
2023/06/27 01:13:25;;;;;;;2.13;1.20;;;;;;;19.41;60.82;98980.25;4154909;28;20214;-52
2023/06/27 01:15:27;;;;;;;2.13;1.23;;;;;;;19.39;60.95;98970.56;4165863;28;21001;-51
2023/06/27 01:17:32;;;;;;;5.30;1.17;;;;;;;19.40;61.24;98972.22;4148749;28;20224;-51
2023/06/27 01:19:35;;;;;;;1.48;1.00;;;;;;;19.33;61.49;98966.19;4138678;28;20240;-51
2023/06/27 01:21:36;;;;;;;2.83;0.98;;;;;;;19.30;61.55;98966.78;4150344;28;20639;-51
2023/06/27 01:23:50;;;;;;;3.40;1.25;;;;;;;19.23;61.60;98972.69;4139958;28;20263;-51
2023/06/27 01:26:10;;;;;;;1.98;1.33;;;;;;;19.18;61.46;98963.56;4149363;28;20239;-51
2023/06/27 01:28:14;;;;;;;2.47;1.13;;;;;;;19.19;61.82;98966.03;4134176;28;20237;-51
2023/06/27 01:30:17;;;;;;;4.03;1.33;;;;;;;19.12;61.69;98960.00;4138959;28;20221;-51
2023/06/27 01:32:26;;;;;;;3.65;1.40;;;;;;;19.09;61.75;98957.84;4149434;28;20299;-51
2023/06/27 01:34:52;;;;;;;2.03;1.23;;;;;;;19.00;61.92;98967.09;4154535;28;20232;-50
2023/06/27 01:37:08;;;;;;;1.75;1.10;;;;;;;18.89;62.46;98965.53;4150012;28;20205;-52
2023/06/27 01:39:14;;;;;;;1.58;1.48;;;;;;;18.85;62.72;98964.47;4132205;28;20315;-51
2023/06/27 01:41:18;;;;;;;2.13;1.05;;;;;;;18.81;63.03;98958.69;4135531;28;20219;-51
2023/06/27 01:43:21;;;;;;;1.60;1.23;;;;;;;18.75;63.41;98951.53;4148706;28;20215;-51
2023/06/27 01:45:23;;;;;;;2.03;1.67;;;;;;;18.53;63.51;98956.72;4139008;28;20229;-51
2023/06/27 01:47:25;;;;;;;2.00;1.15;;;;;;;18.33;64.55;98956.88;4167671;28;20219;-52
2023/06/27 01:49:27;;;;;;;2.30;1.40;;;;;;;18.53;63.62;98956.72;4154536;28;20257;-51
2023/06/27 01:51:29;;;;;;;1.65;1.15;;;;;;;18.41;64.12;98953.50;4137578;28;20205;-51
2023/06/27 01:53:31;;;;;;;1.45;1.27;;;;;;;18.49;63.72;98949.28;4148192;28;20300;-51
2023/06/27 01:55:33;;;;;;;3.25;1.52;;;;;;;18.26;64.11;98952.78;4136754;28;20240;-51
2023/06/27 01:57:35;;;;;;;2.40;1.00;;;;;;;18.29;64.53;98960.50;4140026;28;20214;-51
2023/06/27 01:59:37;;;;;;;2.10;1.15;;;;;;;18.38;63.98;98947.72;4143920;28;20236;-51
2023/06/27 02:01:39;;;;;;;3.05;1.25;;;;;;;18.41;63.73;98947.97;4134582;28;20301;-51
2023/06/27 02:03:41;;;;;;;2.70;1.40;;;;;;;18.22;63.92;98943.38;4136396;28;20198;-51
2023/06/27 02:05:46;;;;;;;2.17;0.85;;;;;;;18.09;64.74;98949.56;4135811;28;20749;-52
2023/06/27 02:07:48;;;;;;;2.92;1.38;;;;;;;18.15;64.36;98945.66;4168305;28;20208;-51
2023/06/27 02:09:50;;;;;;;4.68;1.30;;;;;;;18.18;64.24;98953.41;4137735;28;20217;-51
2023/06/27 02:11:52;;;;;;;2.33;1.08;;;;;;;18.21;64.25;98947.25;4167077;28;20215;-52
2023/06/27 02:13:54;;;;;;;1.10;1.00;;;;;;;18.18;64.48;98947.84;4147671;28;20213;-51
2023/06/27 02:15:55;;;;;;;1.33;1.00;;;;;;;18.16;64.83;98944.53;4134881;28;20240;-52
2023/06/27 02:17:58;;;;;;;1.75;1.30;;;;;;;18.16;65.04;98944.53;4135065;28;20213;-52
2023/06/27 02:19:59;;;;;;;3.78;1.17;;;;;;;18.10;65.08;98945.66;4122563;28;20340;-51
2023/06/27 02:22:02;;;;;;;2.53;1.27;;;;;;;18.09;65.19;98949.56;4132088;28;20206;-51
2023/06/27 02:24:04;;;;;;;1.67;1.40;;;;;;;18.08;65.83;98947.91;4136483;28;20233;-51
2023/06/27 02:26:06;;;;;;;2.13;1.08;;;;;;;18.04;65.79;98949.63;4149877;28;20224;-51
2023/06/27 02:28:08;;;;;;;2.33;1.00;;;;;;;18.07;66.27;98949.03;4166033;28;20245;-52
2023/06/27 02:30:10;;;;;;;2.38;1.15;;;;;;;18.00;66.60;98954.06;4165944;28;20216;-51
2023/06/27 02:32:12;;;;;;;2.70;1.30;;;;;;;17.98;66.81;98950.75;4133094;28;20408;-51
2023/06/27 02:34:14;;;;;;;2.17;1.38;;;;;;;17.96;67.25;98945.50;4148115;28;20217;-51
2023/06/27 02:36:16;;;;;;;7.18;2.20;;;;;;;17.95;67.45;98943.84;4147944;28;20235;-51
2023/06/27 02:38:18;;;;;;;2.72;1.30;;;;;;;17.93;67.77;98950.78;4130577;28;20209;-51
2023/06/27 02:40:20;;;;;;;3.50;1.25;;;;;;;17.93;68.15;98942.47;4150088;28;20601;-51
2023/06/27 02:42:22;;;;;;;3.58;1.60;;;;;;;17.91;68.04;98941.94;4133805;28;20209;-51
2023/06/27 02:44:24;;;;;;;1.80;1.17;;;;;;;17.81;68.31;98947.53;4133966;28;20208;-51
2023/06/27 02:46:26;;;;;;;3.65;1.30;;;;;;;17.77;68.47;98946.44;4137526;28;20590;-51
2023/06/27 02:48:28;;;;;;;2.25;1.05;;;;;;;17.76;68.59;98953.09;4134814;28;20272;-51
2023/06/27 02:50:29;;;;;;;3.53;1.30;;;;;;;17.73;68.81;98950.91;4135181;28;20306;-51
2023/06/27 02:52:31;;;;;;;3.38;1.27;;;;;;;17.72;68.89;98952.03;4164084;28;21333;-50
2023/06/27 02:54:33;;;;;;;2.15;1.20;;;;;;;17.75;69.07;98954.22;4148822;28;20212;-51
2023/06/27 02:56:35;;;;;;;1.67;1.40;;;;;;;17.75;69.30;98962.53;4142561;28;20229;-50
2023/06/27 02:58:38;;;;;;;1.73;1.10;;;;;;;17.71;69.41;98958.69;4135276;28;20296;-51
2023/06/27 03:00:40;;;;;;;2.40;1.35;;;;;;;17.68;69.48;98960.06;4135169;28;20714;-51
2023/06/27 03:02:41;;;;;;;1.88;1.40;;;;;;;17.65;69.54;98962.59;4148446;28;20284;-51
2023/06/27 03:04:46;;;;;;;2.33;1.20;;;;;;;17.63;69.78;98962.03;4136528;28;20572;-52
2023/06/27 03:06:48;;;;;;;2.78;1.13;;;;;;;17.63;70.02;98967.56;4139226;28;20233;-52
2023/06/27 03:08:50;;;;;;;1.10;1.00;;;;;;;17.62;69.99;98971.44;4135635;28;20209;-51
2023/06/27 03:10:52;;;;;;;2.40;1.10;;;;;;;17.54;69.93;98972.03;4139562;28;20268;-50
2023/06/27 03:12:54;;;;;;;2.50;1.35;;;;;;;17.52;70.11;98965.97;4153151;28;20240;-51
2023/06/27 03:14:56;;;;;;;1.58;1.33;;;;;;;17.57;70.19;98974.22;4137818;28;20221;-51
2023/06/27 03:16:58;;;;;;;3.15;1.48;;;;;;;17.56;70.39;98976.19;4137577;28;20221;-51
2023/06/27 03:18:59;;;;;;;1.30;1.00;;;;;;;17.49;70.63;98972.91;4135947;28;20220;-51
2023/06/27 03:21:02;;;;;;;2.00;1.08;;;;;;;17.50;70.80;98982.00;4133657;28;20210;-52
2023/06/27 03:23:04;;;;;;;2.10;1.42;;;;;;;17.47;70.79;98982.59;4134129;28;20210;-52
2023/06/27 03:25:09;;;;;;;2.55;1.75;;;;;;;17.46;71.02;98983.72;4164576;28;20204;-52
2023/06/27 03:27:13;;;;;;;2.97;1.50;;;;;;;17.31;71.57;98976.25;4131950;28;20281;-51
2023/06/27 03:29:15;;;;;;;3.25;1.20;;;;;;;17.30;71.71;98979.28;4166080;28;20686;-51
2023/06/27 03:31:17;;;;;;;2.38;1.67;;;;;;;17.01;72.89;98981.03;4133666;28;20217;-51
2023/06/27 03:33:18;;;;;;;2.65;1.50;;;;;;;17.14;72.30;98981.31;4149682;28;20209;-51
2023/06/27 03:35:20;;;;;;;1.30;1.20;;;;;;;17.18;72.14;98976.03;4132450;28;20232;-52
2023/06/27 03:37:22;;;;;;;1.75;1.10;;;;;;;17.17;72.28;98985.41;4131086;28;20679;-51
2023/06/27 03:39:24;;;;;;;1.88;1.17;;;;;;;17.09;72.87;98981.31;4145576;28;20213;-52
2023/06/27 03:41:26;;;;;;;3.38;1.45;;;;;;;17.06;72.86;98984.63;4135600;28;20209;-51
2023/06/27 03:43:28;;;;;;;2.75;1.38;;;;;;;17.12;72.91;98990.97;4132903;28;20218;-51
2023/06/27 03:45:30;;;;;;;1.80;1.20;;;;;;;16.93;73.73;98992.69;4133430;28;20364;-51
2023/06/27 03:47:32;;;;;;;2.00;1.00;;;;;;;16.90;73.72;98993.22;4129349;28;20246;-51
2023/06/27 03:49:34;;;;;;;1.63;1.27;;;;;;;16.88;73.84;98995.44;4145771;28;20221;-51
2023/06/27 03:51:39;;;;;;;2.50;1.17;;;;;;;16.92;73.85;98991.03;4133300;28;20546;-52
2023/06/27 03:53:41;;;;;;;1.90;1.15;;;;;;;16.90;73.96;98990.47;4162766;28;20299;-52
2023/06/27 03:55:43;;;;;;;2.55;1.40;;;;;;;16.98;73.64;98989.06;4116781;28;20238;-52
2023/06/27 03:57:45;;;;;;;3.30;1.23;;;;;;;16.98;73.16;98987.16;4135213;28;20209;-51
2023/06/27 03:59:46;;;;;;;7.93;1.20;;;;;;;17.02;73.07;98983.53;4138388;28;20216;-52
2023/06/27 04:01:48;;;;;;;2.83;1.38;;;;;;;17.07;73.17;98991.00;4125121;28;20206;-51
2023/06/27 04:03:50;;;;;;;2.50;1.67;;;;;;;16.90;73.55;98984.94;4135417;28;20217;-51
2023/06/27 04:05:52;;;;;;;1.02;1.00;;;;;;;16.85;73.67;98987.72;4137405;28;20635;-52
2023/06/27 04:07:54;;;;;;;1.33;1.05;;;;;;;16.85;73.46;98987.72;4150358;28;20209;-51
2023/06/27 04:09:56;;;;;;;2.20;1.13;;;;;;;16.75;73.93;98987.72;4147483;28;20225;-51
2023/06/27 04:11:59;;;;;;;3.53;1.25;;;;;;;16.73;73.81;98995.47;4153682;28;20205;-52
2023/06/27 04:14:02;;;;;;;1.73;1.00;;;;;;;16.70;74.13;98990.47;4151300;28;20212;-51
2023/06/27 04:16:04;;;;;;;1.15;1.00;;;;;;;16.72;74.22;98993.81;4136557;28;20244;-51
2023/06/27 04:18:06;;;;;;;1.42;1.17;;;;;;;16.43;75.09;99001.00;4151729;28;20217;-51
2023/06/27 04:20:08;;;;;;;2.92;1.38;;;;;;;16.56;75.02;99003.22;4136354;28;20217;-52
2023/06/27 04:22:10;;;;;;;2.70;1.38;;;;;;;16.62;74.54;99006.81;4138758;28;20210;-52
2023/06/27 04:24:12;;;;;;;3.13;1.40;;;;;;;16.75;74.48;99011.78;4136962;28;20296;-52
2023/06/27 04:26:15;;;;;;;1.90;1.50;;;;;;;16.84;74.38;99007.34;4136992;28;20732;-51
2023/06/27 04:28:17;;;;;;;2.15;1.33;;;;;;;16.88;74.67;99011.22;4139110;28;20597;-52
2023/06/27 04:30:19;;;;;;;1.58;1.15;;;;;;;16.83;74.78;99000.97;4139830;28;20742;-51
2023/06/27 04:32:21;;;;;;;2.67;1.20;;;;;;;16.87;74.69;99007.63;4135807;28;20651;-52
2023/06/27 04:34:23;;;;;;;1.48;1.10;;;;;;;16.79;74.90;99004.59;4150368;28;20218;-52
2023/06/27 04:36:25;;;;;;;1.45;1.33;;;;;;;16.82;74.88;99004.03;4141591;28;20251;-51
2023/06/27 04:38:28;;;;;;;2.25;1.75;;;;;;;16.86;74.82;99005.97;4142589;28;20205;-51
2023/06/27 04:40:30;;;;;;;2.10;1.13;;;;;;;16.89;74.74;99002.63;4137071;28;20209;-51
2023/06/27 04:42:32;;;;;;;2.75;1.48;;;;;;;16.97;74.53;98999.28;4134306;28;20683;-52
2023/06/27 04:44:34;;;;;;;2.03;1.30;;;;;;;17.04;74.44;99002.59;4129013;28;20213;-52
2023/06/27 04:46:35;;;;;;;1.67;1.30;;;;;;;17.08;74.28;99003.69;4164929;28;20784;-52
2023/06/27 04:48:37;;;;;;;2.60;1.33;;;;;;;17.11;74.13;99003.97;4146868;28;20209;-51
2023/06/27 04:50:39;;;;;;;2.63;1.83;;;;;;;17.11;73.85;99014.22;4129997;28;20606;-52
2023/06/27 04:52:41;;;;;;;2.92;1.45;;;;;;;17.18;74.38;99014.75;4155052;28;20212;-52
2023/06/27 04:54:48;;;;;;;2.65;1.25;;;;;;;17.23;74.34;99017.50;4159021;28;20247;-52
2023/06/27 04:56:50;;;;;;;2.47;1.40;;;;;;;17.27;74.10;99015.84;4132074;28;20229;-51
2023/06/27 04:59:12;;;;;;;3.47;1.20;;;;;;;17.27;73.98;99021.38;4148420;28;20209;-52
2023/06/27 05:01:14;;;;;;;1.65;1.15;;;;;;;17.30;74.26;99024.41;4126262;28;20714;-52
2023/06/27 05:03:16;;;;;;;3.33;1.55;;;;;;;17.34;74.28;99019.13;4133757;28;20209;-51
2023/06/27 05:05:17;;;;;;;2.50;1.45;;;;;;;17.31;74.23;99020.53;4133470;28;20548;-52
2023/06/27 05:07:20;;;;;;;1.27;1.00;;;;;;;17.39;74.30;99013.63;4163791;28;20296;-51
2023/06/27 05:09:22;;;;;;;1.90;1.10;;;;;;;17.30;74.01;99013.34;4147310;28;20217;-51
2023/06/27 05:11:24;;;;;;;7.70;1.67;;;;;;;17.08;74.06;99001.78;4146367;28;20205;-51
2023/06/27 05:13:26;;;;;;;1.90;1.80;;;;;;;16.95;74.88;99009.81;4153510;28;20216;-52
2023/06/27 05:15:28;;;;;;;3.33;1.92;;;;;;;17.03;75.01;99012.00;4136810;28;20226;-52
2023/06/27 05:17:35;;;;;;;2.72;1.60;;;;;;;17.13;74.75;99006.47;4146900;28;20914;-52
2023/06/27 05:19:37;;;;;;;2.45;1.40;;;;;;;17.05;74.11;99009.81;4147495;28;20206;-51
2023/06/27 05:21:38;;;;;;;1.23;1.13;;;;;;;17.14;74.60;99013.66;4147174;28;20863;-52
2023/06/27 05:23:40;;;;;;;2.28;1.60;;;;;;;17.29;75.30;99022.75;4131414;28;20214;-51
2023/06/27 05:25:42;;;;;;;1.73;1.40;;;;;;;17.40;75.19;99012.50;4131488;28;20229;-52
2023/06/27 05:27:44;;;;;;;5.75;1.48;;;;;;;17.33;73.44;99011.94;4136584;28;20635;-51
2023/06/27 05:29:46;;;;;;;2.85;1.83;;;;;;;17.29;74.63;99006.16;4134290;28;20205;-51
2023/06/27 05:31:48;;;;;;;5.43;1.58;;;;;;;17.22;73.77;99015.84;4131292;28;20224;-52
2023/06/27 05:33:50;;;;;;;2.55;1.30;;;;;;;17.39;73.77;99021.91;4135258;28;20263;-52
2023/06/27 05:35:51;;;;;;;3.20;1.48;;;;;;;17.46;73.96;99017.72;4133527;28;20233;-52
2023/06/27 05:37:53;;;;;;;4.18;1.42;;;;;;;17.61;73.88;99014.94;4133505;28;20208;-51
2023/06/27 05:39:55;;;;;;;1.98;1.55;;;;;;;17.76;74.38;99022.31;4132360;28;20727;-52
2023/06/27 05:41:57;;;;;;;3.58;1.60;;;;;;;17.79;75.15;99019.81;4139317;28;20577;-52
2023/06/27 05:43:59;;;;;;;1.42;1.33;;;;;;;17.97;74.87;99029.41;4131889;28;20206;-51
2023/06/27 05:46:01;;;;;;;2.17;1.20;;;;;;;18.14;74.69;99029.88;4146908;28;20754;-52
2023/06/27 05:48:03;;;;;;;3.22;1.50;;;;;;;18.27;74.65;99023.69;4138714;28;20205;-51
2023/06/27 05:50:05;;;;;;;7.68;1.73;;;;;;;18.47;72.88;99034.69;4128682;28;20210;-54
2023/06/27 05:52:07;;;;;;;2.45;1.58;;;;;;;18.42;71.69;99026.38;4137009;28;20217;-52
2023/06/27 05:54:09;;;;;;;1.92;1.25;;;;;;;18.19;71.72;99022.34;4166859;28;20220;-51
2023/06/27 05:56:11;;;;;;;1.73;1.30;;;;;;;18.44;71.60;99027.75;4138638;28;20332;-51
2023/06/27 05:58:15;;;;;;;2.88;1.40;;;;;;;18.59;71.66;99026.81;4153964;28;20216;-52
2023/06/27 06:00:21;;;;;;;1.60;1.30;;;;;;;18.87;71.59;99031.56;4141394;28;20280;-51
2023/06/27 06:02:22;;;;;;;1.77;1.30;;;;;;;19.01;70.62;99027.84;4137778;28;20268;-51
2023/06/27 06:04:24;;;;;;;2.15;1.17;;;;;;;18.87;69.56;99023.25;4167458;28;20207;-51
2023/06/27 06:06:27;;;;;;;3.30;1.25;;;;;;;18.74;69.10;99015.59;4144885;28;20233;-52
2023/06/27 06:08:29;;;;;;;4.03;1.60;;;;;;;18.66;68.78;99016.22;4167812;28;20609;-52
2023/06/27 06:10:31;;;;;;;3.78;1.63;;;;;;;18.77;68.40;99017.81;4151494;28;20930;-51
2023/06/27 06:12:33;;;;;;;3.70;1.30;;;;;;;18.70;68.35;99028.38;4151080;28;20205;-51
2023/06/27 06:14:35;;;;;;;3.22;1.70;;;;;;;18.63;68.92;99028.72;4134500;28;20241;-52
2023/06/27 06:16:36;;;;;;;3.95;1.77;;;;;;;18.37;68.89;99027.25;4141855;28;20244;-51
2023/06/27 06:18:38;;;;;;;2.05;1.13;;;;;;;18.59;67.91;99021.28;4136344;28;20213;-52
2023/06/27 06:20:40;;;;;;;2.33;1.33;;;;;;;18.28;68.97;99012.34;4149152;28;20670;-51
2023/06/27 06:22:42;;;;;;;3.38;1.58;;;;;;;18.62;68.84;99015.13;4148197;28;20208;-51
2023/06/27 06:24:44;;;;;;;2.70;1.30;;;;;;;18.85;69.03;99019.94;4143263;28;20209;-51
2023/06/27 06:26:46;;;;;;;4.70;1.20;;;;;;;18.87;68.30;99017.72;4141977;28;20232;-51
2023/06/27 06:28:48;;;;;;;2.15;1.20;;;;;;;19.00;67.88;99028.13;4132095;28;20209;-52
2023/06/27 06:30:50;;;;;;;3.17;1.55;;;;;;;18.94;68.28;99024.56;4157776;28;20283;-51
2023/06/27 06:32:53;;;;;;;2.67;1.40;;;;;;;19.10;67.30;99028.00;4128155;28;20295;-51
2023/06/27 06:34:58;;;;;;;2.50;1.33;;;;;;;19.05;66.68;99025.31;4137340;28;21704;-51
2023/06/27 06:36:59;;;;;;;2.10;1.25;;;;;;;19.19;66.03;99038.19;4148675;28;20228;-51
2023/06/27 06:39:01;;;;;;;2.03;1.45;;;;;;;19.54;66.31;99034.25;4140913;28;20213;-52
2023/06/27 06:41:03;;;;;;;4.70;1.27;;;;;;;19.76;65.38;99031.75;4147394;28;21262;-51
2023/06/27 06:43:05;;;;;;;1.65;1.10;;;;;;;19.99;64.56;99039.25;4137442;28;20217;-51
2023/06/27 06:45:18;;;;;;;4.53;1.25;;;;;;;20.18;63.95;99040.13;4131578;28;20622;-52
2023/06/27 06:47:20;;;;;;;1.50;1.00;;;;;;;20.63;62.21;99031.91;4141413;28;20750;-52
2023/06/27 06:49:22;;;;;;;3.00;1.20;;;;;;;20.58;61.37;99033.97;4130466;28;20555;-51
2023/06/27 06:51:24;;;;;;;2.08;1.30;;;;;;;20.49;61.07;99024.63;4146188;28;20215;-51
2023/06/27 06:53:26;;;;;;;2.17;1.17;;;;;;;20.69;60.08;99032.66;4132167;28;20730;-51
2023/06/27 06:55:28;;;;;;;3.92;1.27;;;;;;;20.57;59.38;99026.75;4131577;28;20232;-51
2023/06/27 06:57:30;;;;;;;2.00;1.42;;;;;;;20.46;59.96;99041.94;4131304;28;20228;-51
2023/06/27 06:59:31;;;;;;;6.07;1.27;;;;;;;20.36;59.23;99042.06;4130853;28;20217;-51
2023/06/27 07:01:33;;;;;;;3.60;1.25;;;;;;;20.39;61.24;99047.03;4128564;28;20215;-51
2023/06/27 07:03:35;;;;;;;1.58;1.15;;;;;;;20.85;59.59;99029.31;4133724;28;20785;-51
2023/06/27 07:05:38;;;;;;;2.10;1.25;;;;;;;20.96;58.81;99035.56;4134166;28;20228;-52
2023/06/27 07:07:41;;;;;;;1.38;0.85;;;;;;;21.20;58.82;99036.25;4129594;28;20663;-52
2023/06/27 07:09:43;;;;;;;1.88;1.05;;;;;;;21.47;58.09;99030.72;4145325;28;20213;-53
2023/06/27 07:11:44;;;;;;;5.53;1.77;;;;;;;21.55;56.69;99027.22;4127777;28;20205;-50
2023/06/27 07:13:46;;;;;;;4.97;2.00;;;;;;;21.72;56.79;99027.47;4136370;28;20656;-51
2023/06/27 07:15:48;;;;;;;1.45;1.00;;;;;;;21.36;56.51;99023.69;4145682;28;20247;-51
2023/06/27 07:17:50;;;;;;;1.45;1.00;;;;;;;21.60;56.40;99029.91;4166556;28;20224;-53
2023/06/27 07:19:53;;;;;;;5.25;1.10;;;;;;;21.27;55.95;99023.59;4115029;28;20217;-53
2023/06/27 07:21:55;;;;;;;1.77;0.90;;;;;;;21.25;56.32;99017.50;4139937;28;20216;-52
2023/06/27 07:24:01;;;;;;;1.45;1.13;;;;;;;21.54;55.99;99025.56;4121513;28;20209;-51
2023/06/27 07:26:04;;;;;;;2.10;1.23;;;;;;;21.71;54.95;99014.69;4137553;28;20776;-51
2023/06/27 07:28:07;;;;;;;2.35;1.20;;;;;;;21.22;56.07;99014.50;4137868;28;20243;-51
2023/06/27 07:30:09;;;;;;;2.00;0.95;;;;;;;21.61;56.02;99014.84;4135806;28;20213;-52
2023/06/27 07:32:12;;;;;;;1.02;0.75;;;;;;;21.82;54.92;99010.53;4125844;28;20688;-53
2023/06/27 07:34:15;;;;;;;3.15;1.23;;;;;;;21.96;54.45;99006.59;4165874;28;20219;-52
2023/06/27 07:36:17;;;;;;;0.75;0.70;;;;;;;22.26;54.55;99005.09;4133055;28;20233;-52
2023/06/27 07:38:25;;;;;;;2.78;0.93;;;;;;;22.58;53.92;98997.38;4134444;28;20201;-53
2023/06/27 07:40:28;;;;;;;1.83;1.17;;;;;;;22.25;51.83;98997.88;4138497;28;20300;-52
2023/06/27 07:42:31;;;;;;;13.63;1.02;;;;;;;21.43;53.59;98996.28;4170149;28;20214;-52
2023/06/27 07:44:34;;;;;;;3.53;1.25;;;;;;;21.07;53.72;98998.91;4138998;28;20659;-51
2023/06/27 07:46:47;;;;;;;6.50;0.98;;;;;;;20.64;54.94;98996.59;4140992;28;20275;-51
2023/06/27 07:48:50;;;;;;;2.15;1.10;;;;;;;20.90;55.02;99004.22;4161901;28;20208;-51
2023/06/27 07:50:53;;;;;;;1.80;0.90;;;;;;;21.61;54.64;98998.13;4156926;28;20215;-51
2023/06/27 07:52:58;;;;;;;2.05;1.95;;;;;;;22.05;53.63;98999.16;4139003;28;20587;-52
2023/06/27 07:55:12;;;;;;;1.05;0.85;;;;;;;22.37;53.55;98998.16;4139136;28;20208;-52
2023/06/27 07:57:15;;;;;;;1.05;0.90;;;;;;;22.11;51.67;99005.44;4140504;28;20590;-51
2023/06/27 07:59:17;;;;;;;1.45;0.90;;;;;;;22.68;51.80;98999.09;4161600;28;20212;-52
2023/06/27 08:01:21;;;;;;;2.13;1.15;;;;;;;23.08;51.02;98996.09;4142622;28;20205;-52
2023/06/27 08:05:58;;;;;;;9.90;1.77;;;;;;;23.52;49.70;99001.63;4163609;28;20220;-52
2023/06/27 08:08:02;;;;;;;1.42;0.85;;;;;;;23.34;46.80;99005.47;4150034;28;20200;-53
2023/06/27 08:10:05;;;;;;;2.42;0.82;;;;;;;23.37;47.65;98998.44;4136911;28;20248;-52
2023/06/27 08:12:09;;;;;;;5.57;1.00;;;;;;;24.00;47.61;98992.09;4160416;28;20595;-52
2023/06/27 08:14:12;;;;;;;3.85;1.13;;;;;;;23.67;48.08;98992.81;4139367;28;20209;-52
2023/06/27 08:16:24;;;;;;;2.45;1.20;;;;;;;24.27;48.64;99000.19;4149123;28;20661;-51
2023/06/27 08:18:27;;;;;;;1.10;0.90;;;;;;;24.01;46.21;99004.13;4155769;28;20207;-51
2023/06/27 08:20:33;;;;;;;1.88;0.90;;;;;;;24.55;46.82;98995.13;4167837;28;20246;-51
2023/06/27 08:22:35;;;;;;;7.32;0.98;;;;;;;23.85;45.54;98989.72;4139650;28;20250;-52
2023/06/27 08:24:37;;;;;;;1.77;0.80;;;;;;;22.95;46.55;98993.38;4131967;28;21394;-52
2023/06/27 08:26:39;;;;;;;8.88;0.85;;;;;;;22.41;49.05;98990.78;4167156;28;20602;-51
2023/06/27 08:28:41;;;;;;;6.47;1.08;;;;;;;23.05;48.39;98985.53;4137386;28;20208;-51
2023/06/27 08:30:42;;;;;;;1.77;0.88;;;;;;;23.19;47.46;98991.09;4147088;28;20204;-51
2023/06/27 08:32:44;;;;;;;9.80;1.33;;;;;;;23.02;47.09;98979.78;4153739;28;20600;-52
2023/06/27 08:34:46;;;;;;;1.25;0.60;;;;;;;23.50;47.49;98986.31;4136718;28;20276;-51
2023/06/27 08:36:48;;;;;;;0.98;0.57;;;;;;;24.08;47.09;98988.50;4134480;28;20733;-51
2023/06/27 08:38:49;;;;;;;1.58;0.88;;;;;;;24.10;47.50;98980.59;4151871;28;21084;-52
2023/06/27 08:40:55;;;;;;;3.42;0.95;;;;;;;24.36;46.73;98984.25;4137660;28;20216;-51
2023/06/27 08:42:56;;;;;;;2.42;0.80;;;;;;;24.19;45.96;98977.84;4144677;28;20570;-51
2023/06/27 08:44:59;;;;;;;1.77;0.90;;;;;;;24.20;46.52;98980.28;4152847;28;20209;-51
2023/06/27 08:47:05;;;;;;;1.90;0.88;;;;;;;24.38;46.29;98976.34;4144515;28;20208;-51
2023/06/27 08:49:10;;;;;;;2.70;0.90;;;;;;;24.00;46.03;98986.50;4145720;28;20209;-51
2023/06/27 08:51:13;;;;;;;2.03;0.73;;;;;;;23.74;46.62;98977.19;4168609;28;20521;-51
2023/06/27 08:53:17;;;;;;;2.13;0.73;;;;;;;23.93;47.08;98977.75;4149726;28;20204;-54
2023/06/27 08:55:37;;;;;;;3.38;0.93;;;;;;;24.26;47.71;98975.38;4144896;28;20232;-51
2023/06/27 08:57:40;;;;;;;0.95;0.73;;;;;;;24.19;46.26;98963.84;4144267;28;20232;-51
2023/06/27 08:59:44;;;;;;;3.58;1.00;;;;;;;24.09;45.98;98962.19;4149681;28;20620;-51
2023/06/27 09:01:47;;;;;;;2.53;0.85;;;;;;;23.42;46.53;98961.94;4143047;28;20205;-51
2023/06/27 09:03:49;;;;;;;4.82;0.90;;;;;;;23.67;46.59;98975.19;4143630;28;20213;-51
2023/06/27 09:05:51;;;;;;;2.45;1.10;;;;;;;23.07;46.33;98962.91;4138682;28;20229;-54
2023/06/27 09:07:53;;;;;;;3.28;1.35;;;;;;;22.90;46.61;98960.81;4145932;28;20854;-53
2023/06/27 09:09:56;;;;;;;2.53;1.10;;;;;;;23.09;47.02;98963.38;4143022;28;20205;-53
2023/06/27 09:12:00;;;;;;;2.10;1.20;;;;;;;23.09;47.47;98957.81;4136411;28;20280;-51
2023/06/27 09:14:03;;;;;;;3.38;1.27;;;;;;;23.43;47.99;98958.81;4138367;28;20223;-51
2023/06/27 09:16:06;;;;;;;2.28;0.90;;;;;;;23.22;47.13;98956.91;4135984;28;20228;-52
2023/06/27 09:18:08;;;;;;;1.73;1.15;;;;;;;23.40;47.23;98958.66;4138429;28;20222;-51
2023/06/27 09:20:12;;;;;;;2.10;0.85;;;;;;;23.30;47.31;98964.53;4135872;28;20213;-52
2023/06/27 09:22:15;;;;;;;3.47;0.88;;;;;;;23.09;48.09;98960.59;4140800;28;20220;-51
2023/06/27 09:24:22;;;;;;;2.42;1.20;;;;;;;23.31;48.04;98960.59;4164227;28;20300;-53
2023/06/27 09:26:27;;;;;;;4.80;0.90;;;;;;;23.46;48.16;98962.94;4146691;28;20718;-52
2023/06/27 09:28:28;;;;;;;5.03;1.10;;;;;;;23.70;47.68;98963.38;4133651;28;20252;-54
2023/06/27 09:30:30;;;;;;;4.28;1.52;;;;;;;23.53;47.66;98963.31;4133194;28;20212;-51
2023/06/27 09:32:35;;;;;;;4.03;1.35;;;;;;;23.81;46.61;98962.75;4139095;28;20216;-51
2023/06/27 09:34:37;;;;;;;2.58;1.00;;;;;;;23.82;46.66;98956.00;4135856;28;20300;-52
2023/06/27 09:36:40;;;;;;;2.45;1.13;;;;;;;23.77;46.99;98954.19;4132437;28;20630;-53
2023/06/27 09:38:45;;;;;;;2.28;1.02;;;;;;;23.79;46.96;98967.84;4131100;28;20202;-53
2023/06/27 09:41:03;;;;;;;2.20;0.95;;;;;;;24.04;46.21;98962.34;4119736;28;20217;-51
2023/06/27 09:43:06;;;;;;;2.60;1.08;;;;;;;24.29;45.09;98964.34;4147386;28;20726;-51